createdAt,value
2023-05-21T00:02:30.068Z,14.80
2023-05-21T00:07:35.038Z,14.70
2023-05-21T00:12:38.561Z,14.60
2023-05-21T00:17:43.621Z,14.60
2023-05-21T00:22:48.863Z,14.50
2023-05-21T00:27:52.284Z,14.50
2023-05-21T00:32:59.268Z,14.50
2023-05-21T00:38:04.716Z,14.40
2023-05-21T00:43:10.305Z,14.40
2023-05-21T00:48:13.668Z,14.30
2023-05-21T00:53:19.690Z,14.30
2023-05-21T00:58:23.640Z,14.10
2023-05-21T01:03:27.983Z,14.20
2023-05-21T01:08:33.190Z,14.10
2023-05-21T01:13:39.137Z,14.20
2023-05-21T01:18:45.429Z,14.20
2023-05-21T01:23:50.932Z,14.30
2023-05-21T01:28:55.404Z,14.10
2023-05-21T01:34:01.712Z,14.10
2023-05-21T01:39:09.122Z,14.10
2023-05-21T01:44:12.885Z,14.20
2023-05-21T01:49:16.744Z,14.20
2023-05-21T01:54:24.122Z,14.10
2023-05-21T01:59:28.066Z,14.10
2023-05-21T02:04:31.736Z,14.10
2023-05-21T02:09:38.105Z,14.10
2023-05-21T02:14:42.812Z,14.00
2023-05-21T02:19:46.588Z,14.00
2023-05-21T02:24:52.169Z,13.90
2023-05-21T02:29:55.939Z,13.90
2023-05-21T02:34:59.839Z,13.90
2023-05-21T02:40:06.109Z,13.90
2023-05-21T02:45:11.822Z,13.90
2023-05-21T02:50:18.293Z,14.10
2023-05-21T02:55:31.865Z,14.00
2023-05-21T03:00:35.257Z,14.10
2023-05-21T03:05:39.133Z,13.90
2023-05-21T03:10:44.773Z,13.90
2023-05-21T03:15:48.875Z,13.80
2023-05-21T03:20:52.928Z,13.80
2023-05-21T03:25:58.100Z,13.90
2023-05-21T03:31:02.147Z,13.80
2023-05-21T03:36:27.773Z,13.80
2023-05-21T03:41:40.673Z,13.90
2023-05-21T03:46:47.487Z,13.90
2023-05-21T03:52:04.157Z,13.80
2023-05-21T03:57:09.178Z,13.70
2023-05-21T04:02:12.644Z,13.70
2023-05-21T04:07:19.384Z,13.70
2023-05-21T04:12:34.604Z,13.70
2023-05-21T04:17:41.804Z,13.70
2023-05-21T04:22:45.556Z,13.80
2023-05-21T04:27:51.554Z,13.70
2023-05-21T04:32:55.448Z,13.70
2023-05-21T04:37:59.315Z,13.80
2023-05-21T04:43:04.958Z,13.80
2023-05-21T04:48:08.542Z,13.90
2023-05-21T04:53:12.910Z,14.10
2023-05-21T04:58:19.371Z,14.20
2023-05-21T05:03:25.151Z,14.10
2023-05-21T05:08:29.372Z,14.10
2023-05-21T05:13:37.408Z,14.20
2023-05-21T05:18:41.146Z,14.10
2023-05-21T05:23:46.951Z,14.10
2023-05-21T05:28:52.707Z,14.20
2023-05-21T05:33:56.510Z,14.60
2023-05-21T05:39:01.409Z,14.70
2023-05-21T05:44:10.906Z,14.80
2023-05-21T05:49:15.017Z,15.10
2023-05-21T05:54:19.949Z,15.20
2023-05-21T05:59:35.297Z,15.30
2023-05-21T06:04:41.113Z,15.50
2023-05-21T06:09:44.853Z,15.70
2023-05-21T06:14:51.049Z,15.80
2023-05-21T06:19:56.786Z,15.80
2023-05-21T06:25:03.038Z,16.00
2023-05-21T06:30:11.786Z,16.30
2023-05-21T06:35:16.856Z,16.20
2023-05-21T06:40:20.672Z,16.10
2023-05-21T06:45:26.733Z,16.40
2023-05-21T06:50:35.966Z,16.50
2023-05-21T06:55:44.562Z,16.40
2023-05-21T07:00:54.340Z,16.50
2023-05-21T07:06:00.758Z,16.80
2023-05-21T07:11:04.930Z,17.10
2023-05-21T07:16:11.303Z,17.70
2023-05-21T07:21:16.698Z,17.60
2023-05-21T07:26:21.563Z,17.70
2023-05-21T07:31:27.270Z,18.40
2023-05-21T07:36:35.228Z,19.10
2023-05-21T07:41:39.845Z,19.90
2023-05-21T07:46:47.421Z,20.00
2023-05-21T07:51:52.565Z,19.70
2023-05-21T07:56:57.265Z,20.00
2023-05-21T08:02:22.992Z,20.40
2023-05-21T08:07:28.178Z,21.00
2023-05-21T08:12:32.751Z,20.70
2023-05-21T08:17:38.774Z,20.50
2023-05-21T08:22:43.939Z,21.40
2023-05-21T08:27:52.913Z,21.80
2023-05-21T08:32:59.102Z,22.40
2023-05-21T08:38:07.564Z,22.30
2023-05-21T08:43:29.668Z,21.50
2023-05-21T08:48:40.444Z,22.70
2023-05-21T08:53:45.941Z,23.20
2023-05-21T08:58:53.273Z,22.80
2023-05-21T09:04:19.562Z,22.60
2023-05-21T09:09:30.073Z,22.40
2023-05-21T09:14:34.642Z,22.90
2023-05-21T09:20:25.105Z,23.30
2023-05-21T09:25:35.086Z,23.30
2023-05-21T09:30:49.909Z,24.20
2023-05-21T09:35:55.197Z,24.90
2023-05-21T09:40:59.028Z,25.20
2023-05-21T09:46:39.352Z,25.00
2023-05-21T09:51:46.407Z,24.60
2023-05-21T09:56:50.152Z,25.00
2023-05-21T10:02:00.554Z,25.30
2023-05-21T10:07:39.468Z,25.50
2023-05-21T10:12:49.455Z,26.50
2023-05-21T10:17:53.288Z,26.90
2023-05-21T10:22:58.454Z,26.90
2023-05-21T10:28:02.618Z,26.80
2023-05-21T10:33:13.432Z,27.20
2023-05-21T10:38:21.660Z,27.90
2023-05-21T10:43:39.867Z,27.80
2023-05-21T10:48:53.700Z,28.00
2023-05-21T10:54:26.396Z,27.60
2023-05-21T10:59:39.618Z,28.30
2023-05-21T11:04:44.354Z,28.30
2023-05-21T11:09:51.697Z,28.60
2023-05-21T11:14:59.385Z,28.30
2023-05-21T11:20:07.986Z,28.80
2023-05-21T11:25:16.382Z,28.80
2023-05-21T11:30:20.719Z,28.20
2023-05-21T11:35:25.704Z,28.10
2023-05-21T11:40:38.568Z,28.40
2023-05-21T11:45:48.657Z,28.00
2023-05-21T11:50:53.676Z,27.20
2023-05-21T11:56:00.114Z,27.10
2023-05-21T12:01:05.292Z,28.00
2023-05-21T12:06:18.895Z,27.80
2023-05-21T12:11:25.371Z,28.00
2023-05-21T12:16:32.862Z,28.50
2023-05-21T12:21:36.971Z,28.60
2023-05-21T12:26:47.189Z,29.20
2023-05-21T12:31:52.687Z,29.30
2023-05-21T12:36:57.506Z,30.10
2023-05-21T12:42:24.980Z,29.70
2023-05-21T12:47:57.194Z,30.00
2023-05-21T12:53:09.701Z,31.00
2023-05-21T12:58:35.212Z,31.30
2023-05-21T13:03:45.608Z,30.90
2023-05-21T13:09:05.639Z,29.70
2023-05-21T13:14:27.464Z,29.80
2023-05-21T13:19:44.786Z,29.50
2023-05-21T13:24:55.179Z,29.10
2023-05-21T13:30:03.584Z,28.60
2023-05-21T13:35:12.389Z,28.90
2023-05-21T13:40:17.740Z,29.60
2023-05-21T13:45:52.797Z,30.00
2023-05-21T13:50:57.378Z,29.70
2023-05-21T13:56:00.959Z,29.70
2023-05-21T14:01:08.390Z,30.50
2023-05-21T14:06:13.493Z,30.50
2023-05-21T14:11:18.654Z,31.00
2023-05-21T14:16:25.179Z,30.20
2023-05-21T14:21:29.056Z,30.40
2023-05-21T14:26:33.810Z,30.40
2023-05-21T14:31:43.359Z,31.00
2023-05-21T14:36:52.222Z,30.00
2023-05-21T14:41:56.309Z,29.00
2023-05-21T14:47:01.092Z,29.40
2023-05-21T14:52:07.353Z,29.60
2023-05-21T14:57:13.911Z,30.80
2023-05-21T15:02:21.636Z,31.30
2023-05-21T15:07:28.774Z,30.40
2023-05-21T15:12:38.346Z,30.30
2023-05-21T15:17:45.704Z,28.70
2023-05-21T15:22:49.258Z,27.30
2023-05-21T15:27:53.171Z,27.20
2023-05-21T15:33:01.007Z,27.40
2023-05-21T15:38:04.626Z,28.60
2023-05-21T15:43:08.550Z,27.40
2023-05-21T15:48:22.521Z,28.90
2023-05-21T15:53:26.266Z,29.80
2023-05-21T15:58:31.223Z,29.20
2023-05-21T16:03:36.565Z,28.00
2023-05-21T16:08:40.205Z,28.60
2023-05-21T16:13:45.006Z,29.80
2023-05-21T16:18:50.086Z,30.50
2023-05-21T16:23:53.312Z,30.20
2023-05-21T16:28:58.823Z,30.50
2023-05-21T16:34:04.324Z,30.10
2023-05-21T16:39:08.130Z,29.50
2023-05-21T16:44:11.861Z,28.70
2023-05-21T16:49:19.308Z,26.80
2023-05-21T16:54:23.173Z,25.70
2023-05-21T16:59:26.740Z,25.50
2023-05-21T17:04:32.706Z,25.80
2023-05-21T17:09:36.531Z,26.00
2023-05-21T17:14:40.309Z,25.90
2023-05-21T17:19:46.625Z,25.70
2023-05-21T17:24:50.513Z,25.30
2023-05-21T17:29:54.425Z,25.10
2023-05-21T17:34:59.304Z,25.00
2023-05-21T17:40:06.947Z,24.40
2023-05-21T17:45:12.636Z,24.10
2023-05-21T17:50:18.749Z,23.80
2023-05-21T17:55:22.524Z,23.80
2023-05-21T18:00:25.858Z,23.60
2023-05-21T18:05:32.110Z,23.40
2023-05-21T18:10:35.675Z,23.40
2023-05-21T18:15:39.691Z,23.10
2023-05-21T18:20:45.939Z,23.00
2023-05-21T18:25:51.118Z,23.10
2023-05-21T18:30:55.374Z,22.90
2023-05-21T18:36:02.240Z,22.90
2023-05-21T18:41:06.083Z,22.80
2023-05-21T18:46:09.800Z,22.80
2023-05-21T18:51:18.158Z,22.80
2023-05-21T18:56:22.527Z,22.80
2023-05-21T19:01:26.362Z,22.60
2023-05-21T19:06:32.989Z,22.50
2023-05-21T19:11:37.734Z,22.40
2023-05-21T19:16:44.690Z,22.20
2023-05-21T19:21:49.791Z,22.00
2023-05-21T19:26:53.408Z,21.70
2023-05-21T19:31:58.580Z,21.50
2023-05-21T19:37:04.014Z,21.40
2023-05-21T19:42:08.241Z,21.10
2023-05-21T19:47:12.572Z,20.70
2023-05-21T19:52:18.556Z,20.70
2023-05-21T19:57:22.322Z,20.50
2023-05-21T20:02:28.904Z,20.30
2023-05-21T20:07:33.582Z,20.40
2023-05-21T20:12:37.016Z,20.50
2023-05-21T20:17:43.566Z,20.40
2023-05-21T20:22:49.636Z,20.50
2023-05-21T20:27:57.642Z,20.50
2023-05-21T20:33:02.862Z,20.50
2023-05-21T20:38:08.251Z,20.30
2023-05-21T20:43:13.973Z,20.20
2023-05-21T20:48:19.651Z,20.00
2023-05-21T20:53:26.071Z,19.90
2023-05-21T20:58:29.400Z,19.90
2023-05-21T21:03:33.872Z,19.80
2023-05-21T21:08:41.516Z,19.60
2023-05-21T21:13:45.054Z,19.40
2023-05-21T21:18:51.259Z,19.30
2023-05-21T21:23:56.262Z,18.70
2023-05-21T21:28:59.733Z,18.90
2023-05-21T21:34:03.883Z,18.70
2023-05-21T21:39:08.838Z,18.60
2023-05-21T21:44:12.263Z,18.50
2023-05-21T21:49:17.699Z,18.30
2023-05-21T21:54:24.078Z,18.10
2023-05-21T21:59:27.824Z,18.00
2023-05-21T22:04:31.674Z,17.80
2023-05-21T22:09:37.812Z,17.70
2023-05-21T22:14:44.712Z,17.70
2023-05-21T22:19:48.110Z,17.70
2023-05-21T22:24:53.564Z,17.70
2023-05-21T22:29:57.474Z,17.60
2023-05-21T22:35:00.839Z,17.50
2023-05-21T22:40:07.066Z,17.30
2023-05-21T22:45:11.869Z,17.20
2023-05-21T22:50:16.789Z,17.10
2023-05-21T22:55:23.167Z,17.10
2023-05-21T23:00:26.922Z,17.10
2023-05-21T23:05:30.566Z,17.30
2023-05-21T23:10:35.545Z,17.30
2023-05-21T23:15:40.254Z,17.30
2023-05-21T23:20:44.772Z,17.10
2023-05-21T23:25:52.405Z,16.90
2023-05-21T23:30:59.243Z,16.80
2023-05-21T23:36:03.082Z,16.80
2023-05-21T23:41:09.042Z,16.70
2023-05-21T23:46:12.511Z,16.60
2023-05-21T23:51:15.640Z,16.60
2023-05-21T23:56:20.485Z,16.40
